createdAt,value
2017-04-15T00:00:52.119Z,1007.18
2017-04-15T00:01:52.324Z,1007.16
2017-04-15T00:02:47.542Z,1007.15
2017-04-15T00:03:47.287Z,1007.09
2017-04-15T00:04:48.253Z,1007.08
2017-04-15T00:05:42.336Z,1007.09
2017-04-15T00:06:42.314Z,1007.03
2017-04-15T00:07:37.365Z,1007.04
2017-04-15T00:08:38.082Z,1007.00
2017-04-15T00:09:31.405Z,1007.01
2017-04-15T00:10:31.403Z,1007.00
2017-04-15T00:11:26.454Z,1007.00
2017-04-15T00:12:21.510Z,1006.98
2017-04-15T00:13:21.532Z,1006.91
2017-04-15T00:14:16.955Z,1006.90
2017-04-15T00:15:16.851Z,1006.86
2017-04-15T00:16:16.613Z,1006.82
2017-04-15T00:17:22.639Z,1006.83
2017-04-15T00:18:22.687Z,1006.80
2017-04-15T00:19:24.099Z,1006.76
2017-04-15T00:20:17.748Z,1006.79
2017-04-15T00:21:18.793Z,1006.75
2017-04-15T00:22:18.735Z,1006.74
2017-04-15T00:23:18.855Z,1006.74
2017-04-15T00:24:13.977Z,1006.71
2017-04-15T00:25:03.384Z,1006.77
2017-04-15T00:25:51.960Z,1006.78
2017-04-15T00:26:46.962Z,1006.74
2017-04-15T00:27:36.371Z,1006.72
2017-04-15T00:28:36.046Z,1006.73
2017-04-15T00:29:31.112Z,1006.73
2017-04-15T00:30:32.429Z,1006.66
2017-04-15T00:31:32.313Z,1006.65
2017-04-15T00:32:32.133Z,1006.61
2017-04-15T00:33:27.162Z,1006.59
2017-04-15T00:34:16.372Z,1006.61
2017-04-15T00:35:04.254Z,1006.60
2017-04-15T00:35:52.544Z,1006.59
2017-04-15T00:36:46.319Z,1006.60
2017-04-15T00:37:40.479Z,1006.57
2017-04-15T00:38:35.379Z,1006.56
2017-04-15T00:39:35.395Z,1006.55
2017-04-15T00:40:30.454Z,1006.55
2017-04-15T00:41:24.661Z,1006.57
2017-04-15T00:42:24.510Z,1006.49
2017-04-15T00:43:13.861Z,1006.48
2017-04-15T00:44:07.556Z,1006.51
2017-04-15T00:45:02.671Z,1006.46
2017-04-15T00:45:50.640Z,1006.47
2017-04-15T00:46:38.764Z,1006.45
2017-04-15T00:47:27.771Z,1006.49
2017-04-15T00:48:21.769Z,1006.40
2017-04-15T00:49:10.847Z,1006.43
2017-04-15T00:50:00.144Z,1006.38
2017-04-15T00:50:47.876Z,1006.39
2017-04-15T00:51:35.932Z,1006.38
2017-04-15T00:52:24.956Z,1006.33
2017-04-15T00:53:19.061Z,1006.29
2017-04-15T00:54:14.014Z,1006.32
2017-04-15T00:55:09.053Z,1006.31
2017-04-15T00:56:10.206Z,1006.28
2017-04-15T00:57:05.089Z,1006.27
2017-04-15T00:57:59.337Z,1006.25
2017-04-15T00:58:59.328Z,1006.26
2017-04-15T00:59:53.144Z,1006.24
2017-04-15T01:00:53.210Z,1006.23
2017-04-15T01:01:47.219Z,1006.22
2017-04-15T01:02:47.229Z,1006.16
2017-04-15T01:03:36.320Z,1006.13
2017-04-15T01:04:36.391Z,1006.11
2017-04-15T01:05:24.350Z,1006.11
2017-04-15T01:06:18.421Z,1006.11
2017-04-15T01:07:12.449Z,1006.15
2017-04-15T01:08:12.505Z,1006.10
2017-04-15T01:09:07.864Z,1006.13
2017-04-15T01:10:02.531Z,1006.12
2017-04-15T01:11:02.547Z,1006.13
2017-04-15T01:11:57.590Z,1006.16
2017-04-15T01:12:51.621Z,1006.12
2017-04-15T01:13:45.649Z,1006.12
2017-04-15T01:14:39.819Z,1006.12
2017-04-15T01:15:33.734Z,1006.11
2017-04-15T01:16:27.736Z,1006.17
2017-04-15T01:17:21.836Z,1006.11
2017-04-15T01:18:21.832Z,1006.12
2017-04-15T01:19:10.879Z,1006.15
2017-04-15T01:19:59.943Z,1006.14
2017-04-15T01:20:47.932Z,1006.15
2017-04-15T01:21:41.998Z,1006.10
2017-04-15T01:22:42.144Z,1006.10
2017-04-15T01:23:36.121Z,1006.07
2017-04-15T01:24:31.054Z,1006.12
2017-04-15T01:25:19.161Z,1006.07
2017-04-15T01:26:13.212Z,1006.03
2017-04-15T01:27:07.350Z,1006.10
2017-04-15T01:28:02.269Z,1006.10
2017-04-15T01:28:56.248Z,1006.06
2017-04-15T01:29:50.298Z,1006.06
2017-04-15T01:30:44.334Z,1006.05
2017-04-15T01:31:39.524Z,1006.08
2017-04-15T01:32:33.446Z,1006.04
2017-04-15T01:33:27.412Z,1006.01
2017-04-15T01:34:33.452Z,1006.00
2017-04-15T01:35:28.497Z,1005.98
2017-04-15T01:36:22.563Z,1006.02
2017-04-15T01:37:17.688Z,1006.04
2017-04-15T01:38:12.578Z,1006.05
2017-04-15T01:39:12.620Z,1006.01
2017-04-15T01:40:07.635Z,1006.01
2017-04-15T01:40:55.624Z,1006.00
2017-04-15T01:41:55.725Z,1006.04
2017-04-15T01:42:55.696Z,1006.02
2017-04-15T01:43:50.769Z,1006.03
2017-04-15T01:44:38.817Z,1006.05
2017-04-15T01:45:38.820Z,1006.08
2017-04-15T01:46:34.109Z,1006.03
2017-04-15T01:47:22.141Z,1006.04
2017-04-15T01:48:23.053Z,1006.01
2017-04-15T01:49:10.972Z,1006.00
2017-04-15T01:50:12.037Z,1005.97
2017-04-15T01:51:12.419Z,1005.95
2017-04-15T01:52:00.026Z,1005.91
2017-04-15T01:52:54.367Z,1005.94
2017-04-15T01:53:42.109Z,1005.89
2017-04-15T01:54:37.209Z,1005.92
2017-04-15T01:55:37.270Z,1005.90
2017-04-15T01:56:32.691Z,1005.89
2017-04-15T01:57:26.424Z,1005.87
2017-04-15T01:58:21.330Z,1005.85
2017-04-15T01:59:21.352Z,1005.85
2017-04-15T02:00:16.342Z,1005.84
2017-04-15T02:01:05.407Z,1005.88
2017-04-15T02:01:54.605Z,1005.89
2017-04-15T02:02:49.499Z,1005.89
2017-04-15T02:03:44.565Z,1005.86
2017-04-15T02:04:33.580Z,1005.87
2017-04-15T02:05:22.568Z,1005.85
2017-04-15T02:06:11.694Z,1005.87
2017-04-15T02:07:06.662Z,1005.80
2017-04-15T02:08:00.715Z,1005.83
2017-04-15T02:08:54.747Z,1005.78
2017-04-15T02:09:54.727Z,1005.82
2017-04-15T02:10:50.009Z,1005.77
2017-04-15T02:11:38.824Z,1005.78
2017-04-15T02:12:38.840Z,1005.75
2017-04-15T02:13:33.926Z,1005.72
2017-04-15T02:14:27.945Z,1005.70
2017-04-15T02:15:22.227Z,1005.71
2017-04-15T02:16:10.998Z,1005.72
2017-04-15T02:17:05.008Z,1005.72
2017-04-15T02:18:00.072Z,1005.73
2017-04-15T02:19:01.079Z,1005.77
2017-04-15T02:19:56.223Z,1005.76
2017-04-15T02:20:51.153Z,1005.74
2017-04-15T02:21:45.205Z,1005.74
2017-04-15T02:22:34.260Z,1005.77
2017-04-15T02:23:23.252Z,1005.75
2017-04-15T02:24:23.353Z,1005.78
2017-04-15T02:25:23.597Z,1005.79
2017-04-15T02:26:17.364Z,1005.76
2017-04-15T02:27:05.444Z,1005.73
2017-04-15T02:27:59.442Z,1005.71
2017-04-15T02:28:53.450Z,1005.69
2017-04-15T02:29:53.608Z,1005.71
2017-04-15T02:30:53.569Z,1005.68
2017-04-15T02:31:48.548Z,1005.61
2017-04-15T02:32:48.607Z,1005.64
2017-04-15T02:33:48.659Z,1005.64
2017-04-15T02:34:42.623Z,1005.65
2017-04-15T02:35:43.713Z,1005.62
2017-04-15T02:36:44.007Z,1005.61
2017-04-15T02:37:37.762Z,1005.59
2017-04-15T02:38:32.786Z,1005.63
2017-04-15T02:39:27.867Z,1005.59
2017-04-15T02:40:22.868Z,1005.57
2017-04-15T02:41:12.111Z,1005.59
2017-04-15T02:42:06.925Z,1005.56
2017-04-15T02:43:07.942Z,1005.58
2017-04-15T02:43:55.973Z,1005.49
2017-04-15T02:44:50.015Z,1005.48
2017-04-15T02:45:38.068Z,1005.50
2017-04-15T02:46:38.132Z,1005.48
2017-04-15T02:47:33.140Z,1005.43
2017-04-15T02:48:27.148Z,1005.42
2017-04-15T02:49:27.168Z,1005.46
2017-04-15T02:50:27.281Z,1005.47
2017-04-15T02:51:21.575Z,1005.41
2017-04-15T02:52:22.302Z,1005.40
2017-04-15T02:53:11.357Z,1005.39
2017-04-15T02:54:06.343Z,1005.39
2017-04-15T02:55:00.407Z,1005.35
2017-04-15T02:55:49.736Z,1005.37
2017-04-15T02:56:44.431Z,1005.36
2017-04-15T02:57:32.510Z,1005.36
2017-04-15T02:58:27.562Z,1005.33
2017-04-15T02:59:27.540Z,1005.31
2017-04-15T03:00:22.695Z,1005.32
2017-04-15T03:01:23.054Z,1005.29
2017-04-15T03:02:17.637Z,1005.30
2017-04-15T03:03:05.721Z,1005.29
2017-04-15T03:03:53.721Z,1005.28
2017-04-15T03:04:42.782Z,1005.27
2017-04-15T03:05:31.805Z,1005.21
2017-04-15T03:06:31.819Z,1005.26
2017-04-15T03:07:25.915Z,1005.25
2017-04-15T03:08:19.907Z,1005.26
2017-04-15T03:09:13.990Z,1005.23
2017-04-15T03:10:01.944Z,1005.27
2017-04-15T03:10:55.995Z,1005.22
2017-04-15T03:11:56.032Z,1005.21
2017-04-15T03:12:56.044Z,1005.21
2017-04-15T03:13:50.073Z,1005.24
2017-04-15T03:14:44.133Z,1005.18
2017-04-15T03:15:32.122Z,1005.19
2017-04-15T03:16:26.135Z,1005.14
2017-04-15T03:17:21.221Z,1005.13
2017-04-15T03:18:15.290Z,1005.16
2017-04-15T03:19:15.321Z,1005.17
2017-04-15T03:20:10.329Z,1005.16
2017-04-15T03:21:04.340Z,1005.13
2017-04-15T03:21:59.573Z,1005.09
2017-04-15T03:22:54.615Z,1004.97
2017-04-15T03:23:54.483Z,1004.98
2017-04-15T03:24:48.482Z,1005.03
2017-04-15T03:25:54.595Z,1004.98
2017-04-15T03:26:54.532Z,1004.96
2017-04-15T03:27:48.543Z,1004.97
2017-04-15T03:28:48.563Z,1004.92
2017-04-15T03:29:42.873Z,1004.95
2017-04-15T03:30:43.632Z,1004.95
2017-04-15T03:31:44.704Z,1004.95
2017-04-15T03:32:39.728Z,1005.01
2017-04-15T03:33:33.769Z,1004.99
2017-04-15T03:34:22.840Z,1005.00
2017-04-15T03:35:16.824Z,1004.96
2017-04-15T03:36:17.168Z,1004.95
2017-04-15T03:37:05.893Z,1004.92
2017-04-15T03:37:59.941Z,1004.94
2017-04-15T03:39:05.987Z,1004.93
2017-04-15T03:40:01.058Z,1004.98
2017-04-15T03:40:56.260Z,1004.92
2017-04-15T03:41:50.044Z,1004.89
2017-04-15T03:42:44.127Z,1004.88
2017-04-15T03:43:32.135Z,1004.92
2017-04-15T03:44:20.339Z,1004.92
2017-04-15T03:45:15.232Z,1004.83
2017-04-15T03:46:09.244Z,1004.85
2017-04-15T03:46:57.280Z,1004.85
2017-04-15T03:47:51.296Z,1004.83
2017-04-15T03:48:39.355Z,1004.84
2017-04-15T03:49:40.336Z,1004.84
2017-04-15T03:50:29.435Z,1004.86
2017-04-15T03:51:23.405Z,1004.86
2017-04-15T03:52:12.502Z,1004.84
2017-04-15T03:53:01.529Z,1004.88
2017-04-15T03:53:55.572Z,1004.81
2017-04-15T03:54:55.554Z,1004.77
2017-04-15T03:55:49.617Z,1004.75
2017-04-15T03:56:43.649Z,1004.73
2017-04-15T03:57:37.659Z,1004.76
2017-04-15T03:58:37.798Z,1004.77
2017-04-15T03:59:37.778Z,1004.77
2017-04-15T04:00:37.746Z,1004.79
2017-04-15T04:01:31.788Z,1004.75
2017-04-15T04:02:25.924Z,1004.75
2017-04-15T04:03:20.872Z,1004.75
2017-04-15T04:04:20.934Z,1004.74
2017-04-15T04:05:14.900Z,1004.70
2017-04-15T04:06:15.236Z,1004.74
2017-04-15T04:07:08.991Z,1004.77
2017-04-15T04:08:09.007Z,1004.74
2017-04-15T04:08:58.057Z,1004.75
2017-04-15T04:09:47.098Z,1004.69
2017-04-15T04:10:36.125Z,1004.70
2017-04-15T04:11:24.276Z,1004.67
2017-04-15T04:12:24.176Z,1004.65
2017-04-15T04:13:19.237Z,1004.70
2017-04-15T04:14:07.256Z,1004.62
2017-04-15T04:15:01.338Z,1004.61
2017-04-15T04:15:55.440Z,1004.64
2017-04-15T04:16:43.413Z,1004.66
2017-04-15T04:17:38.454Z,1004.68
2017-04-15T04:18:33.467Z,1004.67
2017-04-15T04:19:22.561Z,1004.64
2017-04-15T04:20:16.569Z,1004.61
2017-04-15T04:21:16.564Z,1004.63
2017-04-15T04:22:05.588Z,1004.64
2017-04-15T04:22:59.650Z,1004.65
2017-04-15T04:23:59.636Z,1004.67
2017-04-15T04:24:54.690Z,1004.65
2017-04-15T04:25:49.700Z,1004.62
2017-04-15T04:26:44.709Z,1004.68
2017-04-15T04:27:39.793Z,1004.61
2017-04-15T04:28:33.823Z,1004.60
2017-04-15T04:29:33.985Z,1004.65
2017-04-15T04:30:28.898Z,1004.68
2017-04-15T04:31:23.131Z,1004.65
2017-04-15T04:32:16.950Z,1004.66
2017-04-15T04:33:12.035Z,1004.64
2017-04-15T04:34:01.421Z,1004.63
2017-04-15T04:35:01.035Z,1004.60
2017-04-15T04:35:50.439Z,1004.59
2017-04-15T04:36:45.180Z,1004.58
2017-04-15T04:37:39.169Z,1004.57
2017-04-15T04:38:39.220Z,1004.53
2017-04-15T04:39:34.205Z,1004.57
2017-04-15T04:40:28.244Z,1004.59
2017-04-15T04:41:17.275Z,1004.57
2017-04-15T04:42:17.306Z,1004.51
2017-04-15T04:43:17.377Z,1004.55
2017-04-15T04:44:11.872Z,1004.61
2017-04-15T04:45:00.440Z,1004.57
2017-04-15T04:46:00.460Z,1004.53
2017-04-15T04:46:54.512Z,1004.50
2017-04-15T04:47:48.598Z,1004.54
2017-04-15T04:48:48.575Z,1004.51
2017-04-15T04:49:37.552Z,1004.52
2017-04-15T04:50:32.629Z,1004.53
2017-04-15T04:51:33.677Z,1004.50
2017-04-15T04:52:27.656Z,1004.53
2017-04-15T04:53:16.778Z,1004.57
2017-04-15T04:54:04.751Z,1004.57
2017-04-15T04:54:59.838Z,1004.56
2017-04-15T04:55:48.848Z,1004.53
2017-04-15T04:56:36.998Z,1004.48
2017-04-15T04:57:30.918Z,1004.50
2017-04-15T04:58:24.922Z,1004.49
2017-04-15T04:59:18.990Z,1004.55
2017-04-15T05:00:08.030Z,1004.56
2017-04-15T05:00:57.092Z,1004.55
2017-04-15T05:01:57.064Z,1004.56
2017-04-15T05:02:51.129Z,1004.51
2017-04-15T05:03:45.230Z,1004.51
2017-04-15T05:04:33.383Z,1004.50
2017-04-15T05:05:28.253Z,1004.59
2017-04-15T05:06:23.256Z,1004.58
2017-04-15T05:07:18.338Z,1004.56
2017-04-15T05:08:12.343Z,1004.55
2017-04-15T05:09:06.409Z,1004.54
2017-04-15T05:10:06.422Z,1004.49
2017-04-15T05:11:00.451Z,1004.47
2017-04-15T05:11:48.528Z,1004.49
2017-04-15T05:12:42.519Z,1004.53
2017-04-15T05:13:31.715Z,1004.49
2017-04-15T05:14:20.611Z,1004.50
2017-04-15T05:15:09.634Z,1004.53
2017-04-15T05:15:58.694Z,1004.54
2017-04-15T05:16:53.717Z,1004.52
2017-04-15T05:17:47.742Z,1004.53
2017-04-15T05:18:47.800Z,1004.57
2017-04-15T05:19:36.861Z,1004.53
2017-04-15T05:20:30.856Z,1004.52
2017-04-15T05:21:25.902Z,1004.55
2017-04-15T05:22:26.883Z,1004.57
2017-04-15T05:23:20.921Z,1004.55
2017-04-15T05:24:15.017Z,1004.57
2017-04-15T05:25:03.033Z,1004.58
2017-04-15T05:25:52.529Z,1004.60
2017-04-15T05:26:46.100Z,1004.58
2017-04-15T05:27:35.123Z,1004.61
2017-04-15T05:28:29.152Z,1004.61
2017-04-15T05:29:23.243Z,1004.57
2017-04-15T05:30:12.298Z,1004.68
2017-04-15T05:31:06.320Z,1004.65
2017-04-15T05:31:54.297Z,1004.65
2017-04-15T05:32:43.389Z,1004.70
2017-04-15T05:33:38.421Z,1004.66
2017-04-15T05:34:32.453Z,1004.69
2017-04-15T05:35:32.570Z,1004.69
2017-04-15T05:36:26.680Z,1004.72
2017-04-15T05:37:14.554Z,1004.71
2017-04-15T05:38:08.569Z,1004.64
2017-04-15T05:38:56.594Z,1004.67
2017-04-15T05:39:51.939Z,1004.69
2017-04-15T05:40:52.127Z,1004.66
2017-04-15T05:41:46.738Z,1004.65
2017-04-15T05:42:35.753Z,1004.66
2017-04-15T05:43:29.835Z,1004.70
2017-04-15T05:44:17.827Z,1004.70
2017-04-15T05:45:05.845Z,1004.75
2017-04-15T05:46:01.161Z,1004.76
2017-04-15T05:46:48.939Z,1004.69
2017-04-15T05:47:37.994Z,1004.73
2017-04-15T05:48:27.061Z,1004.70
2017-04-15T05:49:22.037Z,1004.75
2017-04-15T05:50:11.197Z,1004.69
2017-04-15T05:51:06.205Z,1004.62
2017-04-15T05:52:01.207Z,1004.69
2017-04-15T05:52:55.205Z,1004.69
2017-04-15T05:53:43.238Z,1004.72
2017-04-15T05:54:38.316Z,1004.72
2017-04-15T05:55:33.336Z,1004.74
2017-04-15T05:56:27.434Z,1004.79
2017-04-15T05:57:16.394Z,1004.74
2017-04-15T05:58:10.951Z,1004.74
2017-04-15T05:59:04.484Z,1004.76
2017-04-15T05:59:53.542Z,1004.76
2017-04-15T06:00:47.682Z,1004.73
2017-04-15T06:01:41.783Z,1004.73
2017-04-15T06:02:30.734Z,1004.85
2017-04-15T06:03:25.671Z,1004.81
2017-04-15T06:04:26.686Z,1004.81
2017-04-15T06:05:15.719Z,1004.74
2017-04-15T06:06:15.756Z,1004.87
2017-04-15T06:07:04.826Z,1004.85
2017-04-15T06:07:58.831Z,1004.78
2017-04-15T06:08:53.851Z,1004.92
2017-04-15T06:09:47.918Z,1004.83
2017-04-15T06:10:42.451Z,1004.86
2017-04-15T06:11:41.948Z,1004.82
2017-04-15T06:12:36.011Z,1004.87
2017-04-15T06:13:36.033Z,1004.88
2017-04-15T06:14:25.054Z,1004.90
2017-04-15T06:15:19.092Z,1004.93
2017-04-15T06:16:13.150Z,1004.91
2017-04-15T06:17:01.160Z,1004.95
2017-04-15T06:18:01.238Z,1004.94
2017-04-15T06:18:55.245Z,1004.86
2017-04-15T06:19:44.297Z,1004.89
2017-04-15T06:20:44.313Z,1004.91
2017-04-15T06:21:38.356Z,1004.87
2017-04-15T06:22:32.430Z,1004.85
2017-04-15T06:23:26.436Z,1004.93
2017-04-15T06:24:15.426Z,1004.94
2017-04-15T06:25:03.516Z,1004.92
2017-04-15T06:25:52.999Z,1004.98
2017-04-15T06:26:41.858Z,1005.03
2017-04-15T06:27:30.623Z,1004.95
2017-04-15T06:28:24.681Z,1004.96
2017-04-15T06:29:18.748Z,1004.96
2017-04-15T06:30:12.769Z,1004.93
2017-04-15T06:31:07.777Z,1004.93
2017-04-15T06:32:01.830Z,1004.99
2017-04-15T06:32:55.808Z,1004.97
2017-04-15T06:33:50.914Z,1004.96
2017-04-15T06:34:44.915Z,1005.00
2017-04-15T06:35:39.921Z,1005.00
2017-04-15T06:36:28.001Z,1004.99
2017-04-15T06:37:17.046Z,1005.04
2017-04-15T06:38:12.049Z,1005.01
2017-04-15T06:39:01.135Z,1004.94
2017-04-15T06:39:55.200Z,1004.97
2017-04-15T06:40:50.151Z,1004.98
2017-04-15T06:41:44.239Z,1005.00
2017-04-15T06:42:39.497Z,1004.97
2017-04-15T06:43:28.324Z,1005.03
2017-04-15T06:44:22.359Z,1005.06
2017-04-15T06:45:17.373Z,1005.07
2017-04-15T06:46:12.406Z,1005.05
2017-04-15T06:47:01.436Z,1005.11
2017-04-15T06:47:49.472Z,1005.05
2017-04-15T06:48:38.536Z,1005.05
2017-04-15T06:49:32.782Z,1005.08
2017-04-15T06:50:21.581Z,1005.00
2017-04-15T06:51:16.651Z,1005.08
2017-04-15T06:52:11.642Z,1005.05
2017-04-15T06:52:59.722Z,1005.04
2017-04-15T06:53:53.766Z,1005.05
2017-04-15T06:54:47.768Z,1005.07
2017-04-15T06:55:36.853Z,1005.07
2017-04-15T06:56:26.190Z,1004.98
2017-04-15T06:57:19.919Z,1005.13
2017-04-15T06:58:08.951Z,1005.08
2017-04-15T06:59:03.957Z,1005.14
2017-04-15T06:59:58.038Z,1005.15
2017-04-15T07:00:53.156Z,1005.13
2017-04-15T07:01:42.085Z,1005.08
2017-04-15T07:02:31.100Z,1005.13
2017-04-15T07:03:20.273Z,1005.19
2017-04-15T07:04:09.165Z,1005.15
2017-04-15T07:05:03.259Z,1005.10
2017-04-15T07:06:03.584Z,1005.11
2017-04-15T07:06:52.305Z,1005.19
2017-04-15T07:07:52.552Z,1005.17
2017-04-15T07:08:40.451Z,1005.18
2017-04-15T07:09:28.476Z,1005.19
2017-04-15T07:10:29.436Z,1005.13
2017-04-15T07:11:23.940Z,1005.17
2017-04-15T07:12:18.524Z,1005.12
2017-04-15T07:13:12.590Z,1005.22
2017-04-15T07:14:01.595Z,1005.11
2017-04-15T07:14:56.624Z,1005.19
2017-04-15T07:15:45.663Z,1005.22
2017-04-15T07:16:39.738Z,1005.17
2017-04-15T07:17:34.766Z,1005.18
2017-04-15T07:18:29.790Z,1005.13
2017-04-15T07:19:18.858Z,1005.20
2017-04-15T07:20:12.840Z,1005.21
2017-04-15T07:21:06.935Z,1005.31
2017-04-15T07:21:55.965Z,1005.22
2017-04-15T07:22:50.203Z,1005.27
2017-04-15T07:23:39.031Z,1005.29
2017-04-15T07:24:33.037Z,1005.30
2017-04-15T07:25:27.081Z,1005.27
2017-04-15T07:26:16.410Z,1005.25
2017-04-15T07:27:04.233Z,1005.25
2017-04-15T07:27:53.261Z,1005.31
2017-04-15T07:28:47.221Z,1005.23
2017-04-15T07:29:47.313Z,1005.22
2017-04-15T07:30:35.323Z,1005.22
2017-04-15T07:31:35.360Z,1005.24
2017-04-15T07:32:29.425Z,1005.25
2017-04-15T07:33:23.446Z,1005.28
2017-04-15T07:34:11.830Z,1005.31
2017-04-15T07:35:05.544Z,1005.26
2017-04-15T07:36:00.512Z,1005.30
2017-04-15T07:36:49.584Z,1005.31
2017-04-15T07:37:43.633Z,1005.27
2017-04-15T07:38:38.670Z,1005.36
2017-04-15T07:39:26.707Z,1005.36
2017-04-15T07:40:20.760Z,1005.39
2017-04-15T07:41:08.730Z,1005.42
2017-04-15T07:42:08.834Z,1005.38
2017-04-15T07:43:03.019Z,1005.42
2017-04-15T07:43:56.916Z,1005.37
2017-04-15T07:44:45.954Z,1005.37
2017-04-15T07:45:34.948Z,1005.37
2017-04-15T07:46:29.461Z,1005.35
2017-04-15T07:47:17.013Z,1005.31
2017-04-15T07:48:11.090Z,1005.32
2017-04-15T07:49:11.183Z,1005.36
2017-04-15T07:50:00.154Z,1005.38
2017-04-15T07:50:49.188Z,1005.38
2017-04-15T07:51:49.254Z,1005.38
2017-04-15T07:52:43.266Z,1005.46
2017-04-15T07:53:32.614Z,1005.51
2017-04-15T07:54:21.362Z,1005.59
2017-04-15T07:55:15.360Z,1005.56
2017-04-15T07:56:09.425Z,1005.63
2017-04-15T07:57:03.445Z,1005.66
2017-04-15T07:58:03.605Z,1005.63
2017-04-15T07:58:52.787Z,1005.61
2017-04-15T07:59:40.579Z,1005.65
2017-04-15T08:00:28.614Z,1005.66
2017-04-15T08:01:16.643Z,1005.72
2017-04-15T08:02:10.668Z,1005.65
2017-04-15T08:02:58.765Z,1005.69
2017-04-15T08:03:52.767Z,1005.70
2017-04-15T08:04:47.841Z,1005.67
2017-04-15T08:05:36.890Z,1005.67
2017-04-15T08:06:31.374Z,1005.63
2017-04-15T08:07:19.971Z,1005.63
2017-04-15T08:08:08.993Z,1005.73
2017-04-15T08:09:03.003Z,1005.70
2017-04-15T08:09:57.057Z,1005.67
2017-04-15T08:10:46.137Z,1005.60
2017-04-15T08:11:34.157Z,1005.64
2017-04-15T08:12:28.170Z,1005.62
2017-04-15T08:13:17.307Z,1005.72
2017-04-15T08:14:05.400Z,1005.69
2017-04-15T08:14:59.334Z,1005.74
2017-04-15T08:15:47.354Z,1005.68
2017-04-15T08:16:36.435Z,1005.71
2017-04-15T08:17:24.817Z,1005.76
2017-04-15T08:18:13.500Z,1005.74
2017-04-15T08:19:08.547Z,1005.76
2017-04-15T08:19:57.596Z,1005.69
2017-04-15T08:20:45.604Z,1005.73
2017-04-15T08:21:39.650Z,1005.76
2017-04-15T08:22:34.732Z,1005.79
2017-04-15T08:23:28.758Z,1005.74
2017-04-15T08:24:23.816Z,1005.79
2017-04-15T08:25:11.855Z,1005.78
2017-04-15T08:26:00.803Z,1005.75
2017-04-15T08:27:00.948Z,1005.73
2017-04-15T08:27:50.041Z,1005.75
2017-04-15T08:28:38.047Z,1005.74
2017-04-15T08:29:32.146Z,1005.76
2017-04-15T08:30:26.055Z,1005.72
2017-04-15T08:31:14.127Z,1005.67
2017-04-15T08:32:02.157Z,1005.75
2017-04-15T08:32:50.226Z,1005.79
2017-04-15T08:33:38.219Z,1005.77
2017-04-15T08:34:27.336Z,1005.79
2017-04-15T08:35:15.345Z,1005.84
2017-04-15T08:36:10.399Z,1005.80
2017-04-15T08:36:59.430Z,1005.84
2017-04-15T08:37:48.488Z,1005.82
2017-04-15T08:38:42.526Z,1005.82
2017-04-15T08:39:42.554Z,1005.81
2017-04-15T08:40:36.658Z,1005.87
2017-04-15T08:41:31.047Z,1005.98
2017-04-15T08:42:19.679Z,1005.94
2017-04-15T08:43:13.736Z,1005.87
2017-04-15T08:44:01.756Z,1005.95
2017-04-15T08:44:55.830Z,1005.86
2017-04-15T08:45:50.079Z,1005.90
2017-04-15T08:46:38.914Z,1006.00
2017-04-15T08:47:26.932Z,1005.96
2017-04-15T08:48:15.017Z,1005.94
2017-04-15T08:49:09.053Z,1005.92
2017-04-15T08:49:58.054Z,1005.93
2017-04-15T08:50:52.107Z,1005.94
2017-04-15T08:51:47.150Z,1005.98
2017-04-15T08:52:41.366Z,1006.04
2017-04-15T08:53:30.233Z,1006.02
2017-04-15T08:54:24.288Z,1006.09
2017-04-15T08:55:18.343Z,1006.05
2017-04-15T08:56:06.547Z,1006.00
2017-04-15T08:56:55.447Z,1005.93
2017-04-15T08:57:44.511Z,1006.02
2017-04-15T08:58:38.529Z,1006.01
2017-04-15T08:59:26.552Z,1005.97
2017-04-15T09:00:20.616Z,1005.97
2017-04-15T09:01:08.906Z,1005.99
2017-04-15T09:01:56.728Z,1005.98
2017-04-15T09:02:45.734Z,1006.02
2017-04-15T09:03:34.875Z,1006.08
2017-04-15T09:04:23.886Z,1006.01
2017-04-15T09:05:17.933Z,1005.97
2017-04-15T09:06:06.926Z,1005.99
2017-04-15T09:06:56.021Z,1006.07
2017-04-15T09:07:50.046Z,1006.09
2017-04-15T09:08:38.296Z,1006.08
2017-04-15T09:09:32.139Z,1006.12
2017-04-15T09:10:26.174Z,1006.05
2017-04-15T09:11:14.228Z,1006.00
2017-04-15T09:12:02.370Z,1005.99
2017-04-15T09:12:56.299Z,1006.03
2017-04-15T09:13:50.355Z,1005.99
2017-04-15T09:14:39.467Z,1006.00
2017-04-15T09:15:33.474Z,1006.06
2017-04-15T09:16:22.510Z,1006.07
2017-04-15T09:17:10.624Z,1006.01
2017-04-15T09:17:59.584Z,1006.02
2017-04-15T09:18:47.988Z,1006.08
2017-04-15T09:19:48.713Z,1006.04
2017-04-15T09:20:42.743Z,1006.01
2017-04-15T09:21:30.717Z,1006.07
2017-04-15T09:22:24.834Z,1006.01
2017-04-15T09:23:13.876Z,1006.08
2017-04-15T09:24:02.922Z,1006.08
2017-04-15T09:24:50.971Z,1006.10
2017-04-15T09:25:45.028Z,1006.17
2017-04-15T09:26:34.085Z,1006.24
2017-04-15T09:27:29.104Z,1006.27
2017-04-15T09:28:29.143Z,1006.14
2017-04-15T09:29:23.147Z,1006.10
2017-04-15T09:30:17.282Z,1006.08
2017-04-15T09:31:06.238Z,1006.06
2017-04-15T09:31:54.312Z,1006.06
2017-04-15T09:32:43.400Z,1006.08
2017-04-15T09:33:38.551Z,1006.09
2017-04-15T09:34:33.423Z,1006.09
2017-04-15T09:35:27.514Z,1006.09
2017-04-15T09:36:16.528Z,1006.10
2017-04-15T09:37:04.555Z,1006.14
2017-04-15T09:37:58.627Z,1006.27
2017-04-15T09:38:46.638Z,1006.23
2017-04-15T09:39:34.687Z,1006.11
2017-04-15T09:40:28.726Z,1006.17
2017-04-15T09:41:17.815Z,1006.23
2017-04-15T09:42:11.851Z,1006.24
2017-04-15T09:43:00.913Z,1006.38
2017-04-15T09:43:55.908Z,1006.25
2017-04-15T09:44:43.945Z,1006.17
2017-04-15T09:45:39.034Z,1006.05
2017-04-15T09:46:33.388Z,1006.18
2017-04-15T09:47:22.123Z,1006.13
2017-04-15T09:48:16.501Z,1006.22
2017-04-15T09:49:05.157Z,1006.19
2017-04-15T09:49:54.203Z,1006.14
2017-04-15T09:50:43.288Z,1006.13
2017-04-15T09:51:37.308Z,1006.10
2017-04-15T09:52:26.348Z,1006.07
2017-04-15T09:53:14.390Z,1006.13
2017-04-15T09:54:03.552Z,1006.19
2017-04-15T09:54:51.545Z,1006.25
2017-04-15T09:55:40.506Z,1006.26
2017-04-15T09:56:29.559Z,1006.18
2017-04-15T09:57:18.619Z,1006.11
2017-04-15T09:58:06.655Z,1006.13
2017-04-15T09:58:55.744Z,1006.16
2017-04-15T09:59:44.778Z,1006.18
2017-04-15T10:00:38.812Z,1006.16
2017-04-15T10:01:33.279Z,1006.31
2017-04-15T10:02:26.907Z,1006.25
2017-04-15T10:03:20.924Z,1006.34
2017-04-15T10:04:15.990Z,1006.26
2017-04-15T10:05:05.086Z,1006.28
2017-04-15T10:05:53.073Z,1006.34
2017-04-15T10:06:42.098Z,1006.31
2017-04-15T10:07:30.158Z,1006.32
2017-04-15T10:08:25.256Z,1006.27
2017-04-15T10:09:19.243Z,1006.26
2017-04-15T10:10:07.318Z,1006.29
2017-04-15T10:10:55.336Z,1006.22
2017-04-15T10:11:50.331Z,1006.26
2017-04-15T10:12:39.442Z,1006.34
2017-04-15T10:13:28.826Z,1006.27
2017-04-15T10:14:22.588Z,1006.39
2017-04-15T10:15:16.493Z,1006.29
2017-04-15T10:16:10.568Z,1006.29
2017-04-15T10:17:04.588Z,1006.41
2017-04-15T10:17:58.630Z,1006.40
2017-04-15T10:18:52.651Z,1006.47
2017-04-15T10:19:41.706Z,1006.50
2017-04-15T10:20:35.849Z,1006.41
2017-04-15T10:21:35.780Z,1006.50
2017-04-15T10:22:24.002Z,1006.50
2017-04-15T10:23:18.902Z,1006.55
2017-04-15T10:24:12.966Z,1006.54
2017-04-15T10:25:02.041Z,1006.47
2017-04-15T10:25:51.391Z,1006.57
2017-04-15T10:26:40.067Z,1006.41
2017-04-15T10:27:34.134Z,1006.44
2017-04-15T10:28:22.153Z,1006.49
2017-04-15T10:29:22.283Z,1006.48
2017-04-15T10:30:11.247Z,1006.55
2017-04-15T10:31:05.222Z,1006.49
2017-04-15T10:31:59.309Z,1006.40
2017-04-15T10:32:47.364Z,1006.33
2017-04-15T10:33:47.621Z,1006.45
2017-04-15T10:34:35.451Z,1006.47
2017-04-15T10:35:30.459Z,1006.48
2017-04-15T10:36:19.536Z,1006.51
2017-04-15T10:37:07.802Z,1006.50
2017-04-15T10:37:56.614Z,1006.60
2017-04-15T10:38:45.716Z,1006.64
2017-04-15T10:39:39.674Z,1006.52
2017-04-15T10:40:28.737Z,1006.56
2017-04-15T10:41:16.795Z,1006.50
2017-04-15T10:42:05.840Z,1006.45
2017-04-15T10:43:00.866Z,1006.52
2017-04-15T10:43:49.937Z,1006.63
2017-04-15T10:44:38.966Z,1006.67